Kezdőlap
METAR-TAF:

METAR-TAF

Repülőterek :

Army Air Corps Middle Wallop

Middle Wallop, Anglia

földrajzi szélesség: 51-09N, földrajzi hosszúság: 001-34W, magasság: 91 m

Jelenlegi meteorológiai megfigyelések

A jelentés 36 perccel ezelõtt készült, 00:50 UTC
Nyugati szél 13 kt
Hőmérséklet 4°C
Páratartalom 81%
Légköri nyomás 1004 hPa
Látótávolság 10 km, vagy több

METAR: EGVP 290050Z AUTO 26013KT 9999 // FEW080/// BKN210/// 04/01 Q1004

Idő: 01:26 (01:26 UTC)

Előrejelzés

A jelentés 6 órával és 0 perccel ezelõtt készült, 19:26 UTC
Az előrejelzés 28-én 21 óra UTC és 28-én 24 óra UTC között érvényes
Nyugat-délnyugati szél 10 kt
Látótávolság 10 km, vagy több
felhőtlen 1500 m magasságban, és nincs gomolyfelhõ

TAF: EGVP 281926Z 2821/2824 25010KT CAVOK

Meteorológiai megfigyelések és előrejelzések több, mint 4000 repülőtéren (METAR és TAF jelentéseket).

A térképen piros és sárga pontok jelzik az elérhető meteorológiai állomásokat.

Mozgassa az egeret a pont fölött, hogy megjelenjen az állomás neve.

Azután kattintson az időjárási megfigyelések és előrejelzések megtekintéséhez.

A térkép megváltoztatása: kattintson a fekete keresztel jelölt zöld gombra ráközelítéshez, a vonallal jelölt zöld gombra távolításhoz, vagy a zöld nyilakra a szomszédos térképek eléréséhez.


METAR-TAF: